sensor_id;sensor_type;location;lat;lon;timestamp;P1;durP1;ratioP1;P2;durP2;ratioP2
51824;SDS011;37879;52.986;6.282;2022-09-12T00:00:04;5.40;;;4.40;;
51824;SDS011;37879;52.986;6.282;2022-09-12T00:02:31;5.72;;;4.55;;
51824;SDS011;37879;52.986;6.282;2022-09-12T00:04:57;5.53;;;4.85;;
51824;SDS011;37879;52.986;6.282;2022-09-12T00:07:26;4.88;;;4.38;;
51824;SDS011;37879;52.986;6.282;2022-09-12T00:09:52;4.93;;;4.40;;
51824;SDS011;37879;52.986;6.282;2022-09-12T00:12:19;5.20;;;4.20;;
51824;SDS011;37879;52.986;6.282;2022-09-12T00:14:45;4.60;;;3.83;;
51824;SDS011;37879;52.986;6.282;2022-09-12T00:17:11;5.28;;;3.92;;
51824;SDS011;37879;52.986;6.282;2022-09-12T00:19:37;6.50;;;5.10;;
51824;SDS011;37879;52.986;6.282;2022-09-12T00:22:03;6.13;;;4.65;;
51824;SDS011;37879;52.986;6.282;2022-09-12T00:24:29;7.47;;;5.22;;
51824;SDS011;37879;52.986;6.282;2022-09-12T00:26:55;6.10;;;5.50;;
51824;SDS011;37879;52.986;6.282;2022-09-12T00:29:21;7.03;;;5.22;;
51824;SDS011;37879;52.986;6.282;2022-09-12T00:31:48;7.50;;;6.47;;
51824;SDS011;37879;52.986;6.282;2022-09-12T00:34:14;8.00;;;5.72;;
51824;SDS011;37879;52.986;6.282;2022-09-12T00:36:40;7.43;;;6.00;;
51824;SDS011;37879;52.986;6.282;2022-09-12T00:39:06;8.95;;;5.47;;
51824;SDS011;37879;52.986;6.282;2022-09-12T00:41:37;5.50;;;4.82;;
51824;SDS011;37879;52.986;6.282;2022-09-12T00:45:04;6.05;;;5.18;;
51824;SDS011;37879;52.986;6.282;2022-09-12T00:47:00;6.97;;;5.00;;
51824;SDS011;37879;52.986;6.282;2022-09-12T00:52:07;7.60;;;5.72;;
51824;SDS011;37879;52.986;6.282;2022-09-12T00:54:35;7.72;;;5.57;;
51824;SDS011;37879;52.986;6.282;2022-09-12T00:57:03;6.63;;;5.20;;
51824;SDS011;37879;52.986;6.282;2022-09-12T00:59:32;6.88;;;4.80;;
51824;SDS011;37879;52.986;6.282;2022-09-12T01:02:01;6.82;;;5.18;;
51824;SDS011;37879;52.986;6.282;2022-09-12T01:04:28;5.65;;;4.72;;
51824;SDS011;37879;52.986;6.282;2022-09-12T01:06:55;6.03;;;4.85;;
51824;SDS011;37879;52.986;6.282;2022-09-12T01:09:22;6.43;;;4.53;;
51824;SDS011;37879;52.986;6.282;2022-09-12T01:11:48;6.63;;;4.80;;
51824;SDS011;37879;52.986;6.282;2022-09-12T01:14:15;6.10;;;3.83;;
51824;SDS011;37879;52.986;6.282;2022-09-12T01:16:42;4.68;;;3.67;;
51824;SDS011;37879;52.986;6.282;2022-09-12T01:35:02;5.72;;;4.75;;
51824;SDS011;37879;52.986;6.282;2022-09-12T01:37:38;7.45;;;5.10;;
51824;SDS011;37879;52.986;6.282;2022-09-12T01:40:21;6.03;;;4.53;;
51824;SDS011;37879;52.986;6.282;2022-09-12T01:42:53;6.18;;;4.50;;
51824;SDS011;37879;52.986;6.282;2022-09-12T01:47:50;6.65;;;5.50;;
51824;SDS011;37879;52.986;6.282;2022-09-12T01:50:20;8.52;;;6.57;;
51824;SDS011;37879;52.986;6.282;2022-09-12T01:53:02;7.03;;;5.45;;
51824;SDS011;37879;52.986;6.282;2022-09-12T01:55:33;7.85;;;5.60;;
51824;SDS011;37879;52.986;6.282;2022-09-12T01:58:05;6.38;;;5.63;;
51824;SDS011;37879;52.986;6.282;2022-09-12T02:00:33;7.85;;;5.93;;
51824;SDS011;37879;52.986;6.282;2022-09-12T02:03:06;9.75;;;7.68;;
51824;SDS011;37879;52.986;6.282;2022-09-12T02:05:52;10.10;;;8.13;;
51824;SDS011;37879;52.986;6.282;2022-09-12T02:08:21;11.57;;;8.00;;
51824;SDS011;37879;52.986;6.282;2022-09-12T02:10:51;11.55;;;7.85;;
51824;SDS011;37879;52.986;6.282;2022-09-12T02:13:22;11.52;;;8.05;;
51824;SDS011;37879;52.986;6.282;2022-09-12T02:18:48;11.95;;;9.18;;
51824;SDS011;37879;52.986;6.282;2022-09-12T02:21:16;11.30;;;8.88;;
51824;SDS011;37879;52.986;6.282;2022-09-12T02:23:44;11.52;;;8.95;;
51824;SDS011;37879;52.986;6.282;2022-09-12T02:26:16;13.35;;;9.60;;
51824;SDS011;37879;52.986;6.282;2022-09-12T02:28:44;14.00;;;10.05;;
51824;SDS011;37879;52.986;6.282;2022-09-12T02:36:09;19.65;;;13.40;;
51824;SDS011;37879;52.986;6.282;2022-09-12T02:38:44;18.67;;;12.95;;
51824;SDS011;37879;52.986;6.282;2022-09-12T02:41:12;19.88;;;12.55;;
51824;SDS011;37879;52.986;6.282;2022-09-12T02:43:39;19.33;;;13.45;;
51824;SDS011;37879;52.986;6.282;2022-09-12T02:46:05;18.02;;;13.93;;
51824;SDS011;37879;52.986;6.282;2022-09-12T02:48:34;20.45;;;13.70;;
51824;SDS011;37879;52.986;6.282;2022-09-12T02:51:02;21.05;;;14.18;;
51824;SDS011;37879;52.986;6.282;2022-09-12T02:53:28;22.02;;;15.57;;
51824;SDS011;37879;52.986;6.282;2022-09-12T02:55:55;20.02;;;13.75;;
51824;SDS011;37879;52.986;6.282;2022-09-12T02:58:21;21.27;;;14.75;;
51824;SDS011;37879;52.986;6.282;2022-09-12T03:01:06;22.65;;;15.43;;
51824;SDS011;37879;52.986;6.282;2022-09-12T03:06:18;21.77;;;15.00;;
51824;SDS011;37879;52.986;6.282;2022-09-12T03:11:30;22.17;;;15.20;;
51824;SDS011;37879;52.986;6.282;2022-09-12T03:26:43;25.13;;;15.63;;
51824;SDS011;37879;52.986;6.282;2022-09-12T03:29:12;29.20;;;16.90;;
51824;SDS011;37879;52.986;6.282;2022-09-12T03:31:53;21.70;;;14.50;;
51824;SDS011;37879;52.986;6.282;2022-09-12T03:34:20;25.38;;;17.30;;
51824;SDS011;37879;52.986;6.282;2022-09-12T03:36:47;24.77;;;16.15;;
51824;SDS011;37879;52.986;6.282;2022-09-12T03:39:13;24.52;;;15.45;;
51824;SDS011;37879;52.986;6.282;2022-09-12T03:41:40;19.02;;;12.90;;
51824;SDS011;37879;52.986;6.282;2022-09-12T03:44:06;23.90;;;17.30;;
51824;SDS011;37879;52.986;6.282;2022-09-12T03:46:32;22.13;;;15.23;;
51824;SDS011;37879;52.986;6.282;2022-09-12T03:48:58;24.15;;;16.08;;
51824;SDS011;37879;52.986;6.282;2022-09-12T03:51:24;24.83;;;16.52;;
51824;SDS011;37879;52.986;6.282;2022-09-12T03:53:51;21.63;;;15.00;;
51824;SDS011;37879;52.986;6.282;2022-09-12T03:56:17;24.63;;;16.58;;
51824;SDS011;37879;52.986;6.282;2022-09-12T03:58:43;25.10;;;17.08;;
51824;SDS011;37879;52.986;6.282;2022-09-12T04:01:11;27.67;;;16.58;;
51824;SDS011;37879;52.986;6.282;2022-09-12T04:03:38;24.00;;;15.73;;
51824;SDS011;37879;52.986;6.282;2022-09-12T04:06:05;31.48;;;19.83;;
51824;SDS011;37879;52.986;6.282;2022-09-12T04:08:32;32.00;;;17.77;;
51824;SDS011;37879;52.986;6.282;2022-09-12T04:11:05;31.02;;;18.92;;
51824;SDS011;37879;52.986;6.282;2022-09-12T04:13:31;25.10;;;17.58;;
51824;SDS011;37879;52.986;6.282;2022-09-12T04:15:57;28.27;;;18.05;;
51824;SDS011;37879;52.986;6.282;2022-09-12T04:18:26;28.50;;;17.83;;
51824;SDS011;37879;52.986;6.282;2022-09-12T04:20:53;28.55;;;17.98;;
51824;SDS011;37879;52.986;6.282;2022-09-12T04:23:19;30.05;;;18.98;;
51824;SDS011;37879;52.986;6.282;2022-09-12T04:25:53;28.00;;;18.80;;
51824;SDS011;37879;52.986;6.282;2022-09-12T04:28:19;27.27;;;17.05;;
51824;SDS011;37879;52.986;6.282;2022-09-12T04:30:45;29.15;;;18.17;;
51824;SDS011;37879;52.986;6.282;2022-09-12T04:33:11;31.00;;;18.55;;
51824;SDS011;37879;52.986;6.282;2022-09-12T04:35:37;27.42;;;17.38;;
51824;SDS011;37879;52.986;6.282;2022-09-12T04:38:04;28.10;;;17.77;;
51824;SDS011;37879;52.986;6.282;2022-09-12T04:40:30;30.88;;;18.50;;
51824;SDS011;37879;52.986;6.282;2022-09-12T04:42:57;31.73;;;19.17;;
51824;SDS011;37879;52.986;6.282;2022-09-12T04:45:23;27.60;;;18.17;;
51824;SDS011;37879;52.986;6.282;2022-09-12T04:47:50;30.45;;;19.38;;
51824;SDS011;37879;52.986;6.282;2022-09-12T04:50:16;30.85;;;18.77;;
51824;SDS011;37879;52.986;6.282;2022-09-12T04:52:42;32.67;;;20.42;;
51824;SDS011;37879;52.986;6.282;2022-09-12T04:55:08;29.38;;;18.50;;
51824;SDS011;37879;52.986;6.282;2022-09-12T04:57:35;35.67;;;19.88;;
51824;SDS011;37879;52.986;6.282;2022-09-12T05:00:02;30.75;;;19.60;;
51824;SDS011;37879;52.986;6.282;2022-09-12T05:02:31;36.90;;;21.67;;
51824;SDS011;37879;52.986;6.282;2022-09-12T05:04:58;30.42;;;19.52;;
51824;SDS011;37879;52.986;6.282;2022-09-12T05:07:26;34.33;;;20.85;;
51824;SDS011;37879;52.986;6.282;2022-09-12T05:09:53;32.35;;;20.70;;
51824;SDS011;37879;52.986;6.282;2022-09-12T05:12:19;36.83;;;21.50;;
51824;SDS011;37879;52.986;6.282;2022-09-12T05:14:45;31.90;;;20.75;;
51824;SDS011;37879;52.986;6.282;2022-09-12T05:17:12;31.58;;;19.90;;
51824;SDS011;37879;52.986;6.282;2022-09-12T05:19:38;32.78;;;19.40;;
51824;SDS011;37879;52.986;6.282;2022-09-12T05:22:04;31.98;;;20.75;;
51824;SDS011;37879;52.986;6.282;2022-09-12T05:24:31;29.27;;;19.45;;
51824;SDS011;37879;52.986;6.282;2022-09-12T05:26:57;31.02;;;19.65;;
51824;SDS011;37879;52.986;6.282;2022-09-12T05:29:23;33.67;;;18.60;;
51824;SDS011;37879;52.986;6.282;2022-09-12T05:31:50;28.92;;;18.98;;
51824;SDS011;37879;52.986;6.282;2022-09-12T05:34:17;31.95;;;20.52;;
51824;SDS011;37879;52.986;6.282;2022-09-12T05:36:43;30.83;;;20.13;;
51824;SDS011;37879;52.986;6.282;2022-09-12T05:39:09;30.67;;;20.25;;
51824;SDS011;37879;52.986;6.282;2022-09-12T05:41:36;29.15;;;20.48;;
51824;SDS011;37879;52.986;6.282;2022-09-12T05:44:03;30.27;;;19.67;;
51824;SDS011;37879;52.986;6.282;2022-09-12T05:46:30;33.30;;;21.23;;
51824;SDS011;37879;52.986;6.282;2022-09-12T05:49:01;29.20;;;19.17;;
51824;SDS011;37879;52.986;6.282;2022-09-12T05:51:27;32.63;;;18.33;;
51824;SDS011;37879;52.986;6.282;2022-09-12T05:53:54;32.97;;;21.20;;
51824;SDS011;37879;52.986;6.282;2022-09-12T05:56:22;29.20;;;18.38;;
51824;SDS011;37879;52.986;6.282;2022-09-12T05:58:56;33.03;;;20.30;;
51824;SDS011;37879;52.986;6.282;2022-09-12T06:01:22;33.65;;;20.60;;
51824;SDS011;37879;52.986;6.282;2022-09-12T06:03:50;36.05;;;22.60;;
51824;SDS011;37879;52.986;6.282;2022-09-12T06:06:17;34.88;;;21.83;;
51824;SDS011;37879;52.986;6.282;2022-09-12T06:08:45;41.25;;;23.25;;
51824;SDS011;37879;52.986;6.282;2022-09-12T06:11:13;39.95;;;24.42;;
51824;SDS011;37879;52.986;6.282;2022-09-12T06:13:39;39.67;;;24.48;;
51824;SDS011;37879;52.986;6.282;2022-09-12T06:16:07;39.47;;;24.40;;
51824;SDS011;37879;52.986;6.282;2022-09-12T06:18:34;38.17;;;23.58;;
51824;SDS011;37879;52.986;6.282;2022-09-12T06:21:01;40.60;;;22.55;;
51824;SDS011;37879;52.986;6.282;2022-09-12T06:23:27;40.38;;;23.80;;
51824;SDS011;37879;52.986;6.282;2022-09-12T06:25:56;38.75;;;24.40;;
51824;SDS011;37879;52.986;6.282;2022-09-12T06:28:23;39.42;;;24.25;;
51824;SDS011;37879;52.986;6.282;2022-09-12T06:30:52;38.95;;;22.33;;
51824;SDS011;37879;52.986;6.282;2022-09-12T06:33:19;45.42;;;26.13;;
51824;SDS011;37879;52.986;6.282;2022-09-12T06:35:45;40.08;;;25.25;;
51824;SDS011;37879;52.986;6.282;2022-09-12T06:38:11;36.75;;;24.80;;
51824;SDS011;37879;52.986;6.282;2022-09-12T06:40:41;44.92;;;24.88;;
51824;SDS011;37879;52.986;6.282;2022-09-12T06:43:09;40.33;;;24.27;;
51824;SDS011;37879;52.986;6.282;2022-09-12T06:45:36;39.00;;;22.50;;
51824;SDS011;37879;52.986;6.282;2022-09-12T06:48:02;42.92;;;24.77;;
51824;SDS011;37879;52.986;6.282;2022-09-12T06:50:28;38.90;;;23.40;;
51824;SDS011;37879;52.986;6.282;2022-09-12T06:52:58;36.15;;;24.13;;
51824;SDS011;37879;52.986;6.282;2022-09-12T06:55:27;42.00;;;24.48;;
51824;SDS011;37879;52.986;6.282;2022-09-12T06:57:53;38.80;;;23.65;;
51824;SDS011;37879;52.986;6.282;2022-09-12T07:00:20;41.70;;;24.73;;
51824;SDS011;37879;52.986;6.282;2022-09-12T07:02:46;42.50;;;25.27;;
51824;SDS011;37879;52.986;6.282;2022-09-12T07:05:12;45.22;;;24.95;;
51824;SDS011;37879;52.986;6.282;2022-09-12T07:07:39;43.35;;;25.98;;
51824;SDS011;37879;52.986;6.282;2022-09-12T07:10:05;48.50;;;27.45;;
51824;SDS011;37879;52.986;6.282;2022-09-12T07:12:31;42.97;;;25.88;;
51824;SDS011;37879;52.986;6.282;2022-09-12T07:14:58;44.72;;;27.08;;
51824;SDS011;37879;52.986;6.282;2022-09-12T07:17:27;48.72;;;29.00;;
51824;SDS011;37879;52.986;6.282;2022-09-12T07:19:53;47.33;;;28.17;;
51824;SDS011;37879;52.986;6.282;2022-09-12T07:22:19;43.83;;;26.10;;
51824;SDS011;37879;52.986;6.282;2022-09-12T07:24:45;45.90;;;27.50;;
51824;SDS011;37879;52.986;6.282;2022-09-12T07:27:12;54.58;;;29.63;;
51824;SDS011;37879;52.986;6.282;2022-09-12T07:29:38;52.10;;;30.05;;
51824;SDS011;37879;52.986;6.282;2022-09-12T07:32:04;48.75;;;28.00;;
51824;SDS011;37879;52.986;6.282;2022-09-12T07:34:31;46.63;;;28.52;;
51824;SDS011;37879;52.986;6.282;2022-09-12T07:36:58;50.42;;;30.42;;
51824;SDS011;37879;52.986;6.282;2022-09-12T07:39:24;48.15;;;27.90;;
51824;SDS011;37879;52.986;6.282;2022-09-12T07:41:50;44.90;;;27.45;;
51824;SDS011;37879;52.986;6.282;2022-09-12T07:44:16;55.65;;;31.73;;
51824;SDS011;37879;52.986;6.282;2022-09-12T07:46:42;50.65;;;29.70;;
51824;SDS011;37879;52.986;6.282;2022-09-12T07:49:10;48.30;;;29.23;;
51824;SDS011;37879;52.986;6.282;2022-09-12T07:51:37;51.45;;;29.20;;
51824;SDS011;37879;52.986;6.282;2022-09-12T07:54:06;50.45;;;28.60;;
51824;SDS011;37879;52.986;6.282;2022-09-12T07:56:33;48.10;;;27.55;;
51824;SDS011;37879;52.986;6.282;2022-09-12T07:58:59;49.83;;;29.42;;
51824;SDS011;37879;52.986;6.282;2022-09-12T08:01:25;53.85;;;30.35;;
51824;SDS011;37879;52.986;6.282;2022-09-12T08:03:52;53.95;;;29.88;;
51824;SDS011;37879;52.986;6.282;2022-09-12T08:06:22;54.08;;;31.27;;
51824;SDS011;37879;52.986;6.282;2022-09-12T08:08:49;55.10;;;31.70;;
51824;SDS011;37879;52.986;6.282;2022-09-12T08:11:16;52.25;;;30.48;;
51824;SDS011;37879;52.986;6.282;2022-09-12T08:13:43;48.95;;;29.77;;
51824;SDS011;37879;52.986;6.282;2022-09-12T08:16:13;47.88;;;30.58;;
51824;SDS011;37879;52.986;6.282;2022-09-12T08:18:40;53.10;;;29.90;;
51824;SDS011;37879;52.986;6.282;2022-09-12T08:21:09;48.83;;;30.50;;
51824;SDS011;37879;52.986;6.282;2022-09-12T08:23:36;49.92;;;30.73;;
51824;SDS011;37879;52.986;6.282;2022-09-12T08:26:03;51.00;;;30.15;;
51824;SDS011;37879;52.986;6.282;2022-09-12T08:28:30;56.75;;;33.60;;
51824;SDS011;37879;52.986;6.282;2022-09-12T08:31:00;52.65;;;30.00;;
51824;SDS011;37879;52.986;6.282;2022-09-12T08:33:27;55.60;;;31.65;;
51824;SDS011;37879;52.986;6.282;2022-09-12T08:38:29;53.50;;;31.33;;
51824;SDS011;37879;52.986;6.282;2022-09-12T08:41:01;49.65;;;31.08;;
51824;SDS011;37879;52.986;6.282;2022-09-12T08:46:01;54.58;;;31.98;;
51824;SDS011;37879;52.986;6.282;2022-09-12T08:48:29;50.42;;;32.30;;
51824;SDS011;37879;52.986;6.282;2022-09-12T08:50:55;53.15;;;32.00;;
51824;SDS011;37879;52.986;6.282;2022-09-12T08:53:22;46.25;;;29.35;;
51824;SDS011;37879;52.986;6.282;2022-09-12T08:55:51;49.42;;;30.63;;
51824;SDS011;37879;52.986;6.282;2022-09-12T08:58:22;51.88;;;31.58;;
51824;SDS011;37879;52.986;6.282;2022-09-12T09:00:56;50.40;;;33.53;;
51824;SDS011;37879;52.986;6.282;2022-09-12T09:06:12;46.90;;;29.85;;
51824;SDS011;37879;52.986;6.282;2022-09-12T09:08:40;47.78;;;29.67;;
51824;SDS011;37879;52.986;6.282;2022-09-12T09:17:06;49.78;;;29.75;;
51824;SDS011;37879;52.986;6.282;2022-09-12T09:19:35;47.28;;;31.58;;
51824;SDS011;37879;52.986;6.282;2022-09-12T09:22:03;53.00;;;30.80;;
51824;SDS011;37879;52.986;6.282;2022-09-12T09:24:36;49.17;;;29.45;;
51824;SDS011;37879;52.986;6.282;2022-09-12T09:27:04;51.13;;;32.47;;
51824;SDS011;37879;52.986;6.282;2022-09-12T09:29:35;51.38;;;31.73;;
51824;SDS011;37879;52.986;6.282;2022-09-12T09:32:09;49.95;;;32.80;;
51824;SDS011;37879;52.986;6.282;2022-09-12T09:34:37;46.05;;;28.33;;
51824;SDS011;37879;52.986;6.282;2022-09-12T09:40:16;49.25;;;30.17;;
51824;SDS011;37879;52.986;6.282;2022-09-12T09:45:14;47.22;;;28.13;;
51824;SDS011;37879;52.986;6.282;2022-09-12T09:47:43;45.60;;;28.40;;
51824;SDS011;37879;52.986;6.282;2022-09-12T09:50:12;51.13;;;29.40;;
51824;SDS011;37879;52.986;6.282;2022-09-12T09:52:40;47.88;;;28.20;;
51824;SDS011;37879;52.986;6.282;2022-09-12T09:55:09;43.42;;;26.95;;
51824;SDS011;37879;52.986;6.282;2022-09-12T09:57:37;44.80;;;26.02;;
51824;SDS011;37879;52.986;6.282;2022-09-12T10:02:59;36.50;;;22.65;;
51824;SDS011;37879;52.986;6.282;2022-09-12T10:05:27;35.72;;;23.05;;
51824;SDS011;37879;52.986;6.282;2022-09-12T10:07:53;31.42;;;20.95;;
51824;SDS011;37879;52.986;6.282;2022-09-12T10:10:19;30.98;;;19.48;;
51824;SDS011;37879;52.986;6.282;2022-09-12T10:12:47;30.55;;;19.80;;
51824;SDS011;37879;52.986;6.282;2022-09-12T10:15:20;32.38;;;20.90;;
51824;SDS011;37879;52.986;6.282;2022-09-12T10:17:48;29.10;;;19.35;;
51824;SDS011;37879;52.986;6.282;2022-09-12T10:20:28;30.33;;;19.00;;
51824;SDS011;37879;52.986;6.282;2022-09-12T10:22:58;26.05;;;17.17;;
51824;SDS011;37879;52.986;6.282;2022-09-12T10:25:25;22.85;;;15.93;;
51824;SDS011;37879;52.986;6.282;2022-09-12T10:27:52;29.52;;;19.48;;
51824;SDS011;37879;52.986;6.282;2022-09-12T10:30:22;27.60;;;18.08;;
51824;SDS011;37879;52.986;6.282;2022-09-12T10:32:53;23.13;;;15.82;;
51824;SDS011;37879;52.986;6.282;2022-09-12T10:35:23;23.45;;;17.38;;
51824;SDS011;37879;52.986;6.282;2022-09-12T10:40:59;22.55;;;14.65;;
51824;SDS011;37879;52.986;6.282;2022-09-12T10:43:28;23.23;;;16.63;;
51824;SDS011;37879;52.986;6.282;2022-09-12T10:45:59;24.23;;;16.75;;
51824;SDS011;37879;52.986;6.282;2022-09-12T10:48:48;22.73;;;15.55;;
51824;SDS011;37879;52.986;6.282;2022-09-12T10:53:40;23.08;;;16.63;;
51824;SDS011;37879;52.986;6.282;2022-09-12T10:56:16;20.50;;;14.27;;
51824;SDS011;37879;52.986;6.282;2022-09-12T11:01:54;22.95;;;15.07;;
51824;SDS011;37879;52.986;6.282;2022-09-12T11:06:22;20.52;;;14.55;;
51824;SDS011;37879;52.986;6.282;2022-09-12T11:09:00;23.92;;;15.10;;
51824;SDS011;37879;52.986;6.282;2022-09-12T11:13:59;22.13;;;15.15;;
51824;SDS011;37879;52.986;6.282;2022-09-12T11:19:32;16.38;;;11.88;;
51824;SDS011;37879;52.986;6.282;2022-09-12T11:22:24;15.52;;;10.15;;
51824;SDS011;37879;52.986;6.282;2022-09-12T11:25:03;16.00;;;10.80;;
51824;SDS011;37879;52.986;6.282;2022-09-12T11:30:25;14.27;;;8.48;;
51824;SDS011;37879;52.986;6.282;2022-09-12T11:35:41;13.10;;;8.98;;
51824;SDS011;37879;52.986;6.282;2022-09-12T11:41:10;13.57;;;8.60;;
51824;SDS011;37879;52.986;6.282;2022-09-12T11:43:59;15.93;;;9.73;;
51824;SDS011;37879;52.986;6.282;2022-09-12T11:49:03;12.48;;;8.68;;
51824;SDS011;37879;52.986;6.282;2022-09-12T11:51:35;10.68;;;6.95;;
51824;SDS011;37879;52.986;6.282;2022-09-12T11:54:10;10.98;;;7.10;;
51824;SDS011;37879;52.986;6.282;2022-09-12T11:56:38;9.63;;;6.72;;
51824;SDS011;37879;52.986;6.282;2022-09-12T11:59:42;8.18;;;5.82;;
51824;SDS011;37879;52.986;6.282;2022-09-12T12:01:59;7.43;;;5.88;;
51824;SDS011;37879;52.986;6.282;2022-09-12T12:04:36;11.13;;;7.47;;
51824;SDS011;37879;52.986;6.282;2022-09-12T12:07:06;12.77;;;8.48;;
51824;SDS011;37879;52.986;6.282;2022-09-12T12:09:32;13.63;;;8.75;;
51824;SDS011;37879;52.986;6.282;2022-09-12T12:12:00;10.73;;;7.80;;
51824;SDS011;37879;52.986;6.282;2022-09-12T12:17:03;13.20;;;9.52;;
51824;SDS011;37879;52.986;6.282;2022-09-12T12:19:30;15.00;;;10.27;;
51824;SDS011;37879;52.986;6.282;2022-09-12T12:22:05;16.85;;;9.68;;
51824;SDS011;37879;52.986;6.282;2022-09-12T12:24:31;14.52;;;8.38;;
51824;SDS011;37879;52.986;6.282;2022-09-12T12:26:59;12.57;;;7.43;;
51824;SDS011;37879;52.986;6.282;2022-09-12T12:29:39;10.00;;;7.57;;
51824;SDS011;37879;52.986;6.282;2022-09-12T12:40:06;10.70;;;7.35;;
51824;SDS011;37879;52.986;6.282;2022-09-12T12:52:27;12.75;;;9.43;;
51824;SDS011;37879;52.986;6.282;2022-09-12T12:54:55;10.45;;;8.02;;
51824;SDS011;37879;52.986;6.282;2022-09-12T12:57:26;12.18;;;7.07;;
51824;SDS011;37879;52.986;6.282;2022-09-12T12:59:58;9.50;;;7.60;;
51824;SDS011;37879;52.986;6.282;2022-09-12T13:02:29;11.93;;;7.72;;
51824;SDS011;37879;52.986;6.282;2022-09-12T13:04:56;9.63;;;7.88;;
51824;SDS011;37879;52.986;6.282;2022-09-12T13:07:29;13.32;;;9.57;;
51824;SDS011;37879;52.986;6.282;2022-09-12T13:09:56;11.30;;;7.75;;
51824;SDS011;37879;52.986;6.282;2022-09-12T13:12:24;12.20;;;8.23;;
51824;SDS011;37879;52.986;6.282;2022-09-12T13:14:58;13.40;;;8.90;;
51824;SDS011;37879;52.986;6.282;2022-09-12T13:19:51;9.50;;;6.60;;
51824;SDS011;37879;52.986;6.282;2022-09-12T13:22:19;11.07;;;7.13;;
51824;SDS011;37879;52.986;6.282;2022-09-12T13:24:47;8.80;;;5.97;;
51824;SDS011;37879;52.986;6.282;2022-09-12T13:27:25;6.85;;;4.75;;
51824;SDS011;37879;52.986;6.282;2022-09-12T13:32:55;7.32;;;4.68;;
51824;SDS011;37879;52.986;6.282;2022-09-12T13:35:43;6.28;;;5.35;;
51824;SDS011;37879;52.986;6.282;2022-09-12T13:38:21;6.97;;;5.13;;
51824;SDS011;37879;52.986;6.282;2022-09-12T13:43:24;7.88;;;5.53;;
51824;SDS011;37879;52.986;6.282;2022-09-12T13:45:55;7.07;;;4.75;;
51824;SDS011;37879;52.986;6.282;2022-09-12T13:48:22;6.18;;;4.53;;
51824;SDS011;37879;52.986;6.282;2022-09-12T13:50:51;5.70;;;4.25;;
51824;SDS011;37879;52.986;6.282;2022-09-12T13:53:21;5.75;;;4.03;;
51824;SDS011;37879;52.986;6.282;2022-09-12T13:55:49;5.13;;;3.30;;
51824;SDS011;37879;52.986;6.282;2022-09-12T14:03:41;5.53;;;3.67;;
51824;SDS011;37879;52.986;6.282;2022-09-12T14:06:26;5.57;;;3.65;;
51824;SDS011;37879;52.986;6.282;2022-09-12T14:08:53;4.95;;;3.25;;
51824;SDS011;37879;52.986;6.282;2022-09-12T14:11:28;3.55;;;3.03;;
51824;SDS011;37879;52.986;6.282;2022-09-12T14:13:57;6.00;;;4.00;;
51824;SDS011;37879;52.986;6.282;2022-09-12T14:16:24;5.45;;;3.88;;
51824;SDS011;37879;52.986;6.282;2022-09-12T14:18:53;5.88;;;4.13;;
51824;SDS011;37879;52.986;6.282;2022-09-12T14:23:55;5.97;;;4.13;;
51824;SDS011;37879;52.986;6.282;2022-09-12T14:26:21;5.97;;;4.35;;
51824;SDS011;37879;52.986;6.282;2022-09-12T14:28:48;5.25;;;3.70;;
51824;SDS011;37879;52.986;6.282;2022-09-12T14:31:22;7.50;;;4.32;;
51824;SDS011;37879;52.986;6.282;2022-09-12T14:34:06;4.18;;;3.28;;
51824;SDS011;37879;52.986;6.282;2022-09-12T14:36:34;5.82;;;4.35;;
51824;SDS011;37879;52.986;6.282;2022-09-12T14:39:02;4.20;;;3.55;;
51824;SDS011;37879;52.986;6.282;2022-09-12T14:41:38;5.72;;;4.47;;
51824;SDS011;37879;52.986;6.282;2022-09-12T14:44:06;6.07;;;4.50;;
51824;SDS011;37879;52.986;6.282;2022-09-12T14:46:37;8.98;;;5.40;;
51824;SDS011;37879;52.986;6.282;2022-09-12T14:49:09;6.18;;;4.85;;
51824;SDS011;37879;52.986;6.282;2022-09-12T14:51:39;7.93;;;5.73;;
51824;SDS011;37879;52.986;6.282;2022-09-12T14:54:24;6.72;;;5.03;;
51824;SDS011;37879;52.986;6.282;2022-09-12T14:56:57;8.38;;;5.82;;
51824;SDS011;37879;52.986;6.282;2022-09-12T15:04:47;6.83;;;6.00;;
51824;SDS011;37879;52.986;6.282;2022-09-12T15:07:24;6.43;;;5.35;;
51824;SDS011;37879;52.986;6.282;2022-09-12T15:09:53;8.60;;;5.72;;
51824;SDS011;37879;52.986;6.282;2022-09-12T15:12:21;7.95;;;6.28;;
51824;SDS011;37879;52.986;6.282;2022-09-12T15:14:47;6.45;;;5.03;;
51824;SDS011;37879;52.986;6.282;2022-09-12T15:17:14;10.82;;;7.07;;
51824;SDS011;37879;52.986;6.282;2022-09-12T15:19:40;6.88;;;4.50;;
51824;SDS011;37879;52.986;6.282;2022-09-12T15:22:09;5.50;;;4.88;;
51824;SDS011;37879;52.986;6.282;2022-09-12T15:24:35;4.82;;;4.32;;
51824;SDS011;37879;52.986;6.282;2022-09-12T15:27:12;4.65;;;4.13;;
51824;SDS011;37879;52.986;6.282;2022-09-12T15:32:05;5.93;;;4.18;;
51824;SDS011;37879;52.986;6.282;2022-09-12T15:34:31;6.10;;;4.57;;
51824;SDS011;37879;52.986;6.282;2022-09-12T15:36:58;4.75;;;4.10;;
51824;SDS011;37879;52.986;6.282;2022-09-12T15:39:24;7.03;;;4.68;;
51824;SDS011;37879;52.986;6.282;2022-09-12T15:41:52;8.48;;;4.53;;
51824;SDS011;37879;52.986;6.282;2022-09-12T15:44:18;5.93;;;4.18;;
51824;SDS011;37879;52.986;6.282;2022-09-12T15:46:45;17.80;;;8.70;;
51824;SDS011;37879;52.986;6.282;2022-09-12T15:49:11;7.18;;;5.13;;
51824;SDS011;37879;52.986;6.282;2022-09-12T15:51:37;5.78;;;3.83;;
51824;SDS011;37879;52.986;6.282;2022-09-12T15:54:04;4.18;;;3.05;;
51824;SDS011;37879;52.986;6.282;2022-09-12T15:56:30;5.97;;;3.97;;
51824;SDS011;37879;52.986;6.282;2022-09-12T15:58:56;5.70;;;3.90;;
51824;SDS011;37879;52.986;6.282;2022-09-12T16:01:23;7.10;;;4.55;;
51824;SDS011;37879;52.986;6.282;2022-09-12T16:03:49;18.92;;;8.73;;
51824;SDS011;37879;52.986;6.282;2022-09-12T16:06:15;4.45;;;4.00;;
51824;SDS011;37879;52.986;6.282;2022-09-12T16:08:41;10.35;;;4.80;;
51824;SDS011;37879;52.986;6.282;2022-09-12T16:11:09;7.60;;;3.88;;
51824;SDS011;37879;52.986;6.282;2022-09-12T16:13:36;4.65;;;3.58;;
51824;SDS011;37879;52.986;6.282;2022-09-12T16:16:03;5.28;;;3.25;;
51824;SDS011;37879;52.986;6.282;2022-09-12T16:18:29;4.15;;;3.75;;
51824;SDS011;37879;52.986;6.282;2022-09-12T16:20:55;4.70;;;3.58;;
51824;SDS011;37879;52.986;6.282;2022-09-12T16:23:22;5.97;;;3.40;;
51824;SDS011;37879;52.986;6.282;2022-09-12T16:25:56;3.47;;;2.88;;
51824;SDS011;37879;52.986;6.282;2022-09-12T16:28:22;4.25;;;3.50;;
51824;SDS011;37879;52.986;6.282;2022-09-12T16:30:59;4.82;;;3.28;;
51824;SDS011;37879;52.986;6.282;2022-09-12T16:33:25;3.60;;;2.92;;
51824;SDS011;37879;52.986;6.282;2022-09-12T16:35:52;4.72;;;3.85;;
51824;SDS011;37879;52.986;6.282;2022-09-12T16:38:21;4.10;;;3.30;;
51824;SDS011;37879;52.986;6.282;2022-09-12T16:40:47;4.95;;;3.88;;
51824;SDS011;37879;52.986;6.282;2022-09-12T16:43:14;3.90;;;3.47;;
51824;SDS011;37879;52.986;6.282;2022-09-12T16:45:42;4.15;;;3.15;;
51824;SDS011;37879;52.986;6.282;2022-09-12T16:48:08;3.72;;;3.08;;
51824;SDS011;37879;52.986;6.282;2022-09-12T16:50:34;4.30;;;3.38;;
51824;SDS011;37879;52.986;6.282;2022-09-12T16:53:00;5.18;;;2.92;;
51824;SDS011;37879;52.986;6.282;2022-09-12T16:55:26;5.70;;;3.40;;
51824;SDS011;37879;52.986;6.282;2022-09-12T16:57:53;4.65;;;3.35;;
51824;SDS011;37879;52.986;6.282;2022-09-12T17:00:19;5.00;;;3.22;;